Chefornak, Alaska
Current Conditions -  °F | °C
As of 5:35 AM on Thursday 27 Nov 2014 (Local Time) from PAKI Reporting Station
Scattered Clouds Scattered Clouds  
Wind Chill: 23°   Ceiling: Unl
Heat Index: 36°   Visibility: 10mi
Dew Point: 32°   Wind: 25mph
Humidity: 87%   Direction: 110°ESE
Pressure: 29.95"   Gusts: NA
Location:  60.16°N, 164.27°W
Report Text: PAKI 271435Z AUTO 11022KT 10SM SCT012 02/00 A2995 RMK AO2 TSNO PK WND 11026/1413 $
Loading
Personal Weather Stations






























Interactive Weather Map New forecast layout! Learn more

10-Day Weather Forecast

Advertisements
Track Severe Weather on mobile